Time;durP1;ratioP1;P1;durP2;ratioP2;P2;SDS_P1;SDS_P2;PMS_P1;PMS_P2;Temp;Humidity;BMP_temperature;BMP_pressure;BME280_temperature;BME280_humidity;BME280_pressure;Samples;Min_cycle;Max_cycle;Signal;HPM_P1;HPM_P2
2021/11/10 00:07:31;;;;;;;4.75;1.80;;;;;;;;;;5007301;28;20084;-76
2021/11/10 00:09:58;;;;;;;3.92;2.00;;;;;;;;;;5004965;28;20065;-76
2021/11/10 00:12:24;;;;;;;4.82;2.00;;;;;;;;;;5008417;28;20050;-76
2021/11/10 00:14:50;;;;;;;5.10;1.80;;;;;;;;;;5005591;28;20089;-76
2021/11/10 00:17:17;;;;;;;5.45;2.05;;;;;;;;;;5010834;28;20064;-76
2021/11/10 00:19:44;;;;;;;3.90;1.60;;;;;;;;;;5009986;28;20066;-76
2021/11/10 00:22:10;;;;;;;5.32;1.80;;;;;;;;;;4990215;28;20136;-76
2021/11/10 00:24:37;;;;;;;5.85;1.67;;;;;;;;;;5007190;28;20065;-76
2021/11/10 00:27:03;;;;;;;3.55;1.60;;;;;;;;;;5007369;28;20049;-76
2021/11/10 00:29:30;;;;;;;3.40;1.52;;;;;;;;;;5006688;28;20062;-75
2021/11/10 00:31:56;;;;;;;3.63;1.83;;;;;;;;;;5006463;28;20061;-76
2021/11/10 00:34:22;;;;;;;5.10;2.22;;;;;;;;;;5001395;28;20088;-75
2021/11/10 00:36:49;;;;;;;5.13;1.85;;;;;;;;;;5001939;28;20123;-75
2021/11/10 00:39:15;;;;;;;4.03;1.90;;;;;;;;;;5007726;28;20492;-77
2021/11/10 00:41:42;;;;;;;4.93;1.80;;;;;;;;;;5005685;28;20062;-77
2021/11/10 00:44:08;;;;;;;4.38;1.70;;;;;;;;;;5009140;28;20047;-75
2021/11/10 00:46:35;;;;;;;3.63;1.70;;;;;;;;;;5002247;28;20061;-75
2021/11/10 00:49:01;;;;;;;5.10;1.92;;;;;;;;;;5008406;28;20512;-75
2021/11/10 00:51:29;;;;;;;3.33;1.60;;;;;;;;;;5007238;28;20057;-74
2021/11/10 00:53:55;;;;;;;5.10;2.38;;;;;;;;;;5002642;28;20065;-75
2021/11/10 00:56:22;;;;;;;5.93;1.90;;;;;;;;;;4970269;28;20086;-75
2021/11/10 00:58:48;;;;;;;4.38;1.65;;;;;;;;;;4987508;28;20065;-76
2021/11/10 01:01:15;;;;;;;5.78;1.90;;;;;;;;;;4986698;28;20080;-79
2021/11/10 01:03:41;;;;;;;4.78;1.70;;;;;;;;;;4983462;28;20062;-76
2021/11/10 01:06:08;;;;;;;3.95;1.73;;;;;;;;;;4990484;28;20058;-76
2021/11/10 01:08:34;;;;;;;3.38;1.77;;;;;;;;;;4988009;28;20043;-77
2021/11/10 01:11:00;;;;;;;4.35;1.70;;;;;;;;;;4988507;28;21900;-76
2021/11/10 01:13:27;;;;;;;3.50;1.58;;;;;;;;;;4987547;28;20510;-77
2021/11/10 01:15:53;;;;;;;3.70;1.73;;;;;;;;;;4983056;28;20069;-77
2021/11/10 01:18:20;;;;;;;3.92;1.55;;;;;;;;;;4968861;28;20034;-78
2021/11/10 01:20:46;;;;;;;4.72;2.00;;;;;;;;;;4985177;28;20132;-77
2021/11/10 01:23:13;;;;;;;4.25;1.70;;;;;;;;;;4985748;28;20058;-76
2021/11/10 01:25:40;;;;;;;3.47;1.80;;;;;;;;;;4985392;28;20077;-76
2021/11/10 01:28:08;;;;;;;4.28;1.60;;;;;;;;;;4984897;28;20069;-76
2021/11/10 01:30:35;;;;;;;5.00;1.70;;;;;;;;;;4992169;28;20061;-77
2021/11/10 01:33:02;;;;;;;3.58;1.88;;;;;;;;;;4985488;28;20058;-76
2021/11/10 01:35:28;;;;;;;2.90;1.50;;;;;;;;;;4987288;28;20069;-75
2021/11/10 01:37:54;;;;;;;3.78;1.50;;;;;;;;;;4989984;28;20065;-78
2021/11/10 01:40:21;;;;;;;4.60;1.70;;;;;;;;;;4988225;28;20045;-76
2021/11/10 01:42:51;;;;;;;4.45;1.88;;;;;;;;;;4987199;28;20096;-76
2021/11/10 01:45:21;;;;;;;2.63;1.38;;;;;;;;;;4983569;28;20142;-76
2021/11/10 01:47:48;;;;;;;4.82;1.55;;;;;;;;;;4985018;28;20508;-76
2021/11/10 01:50:16;;;;;;;4.15;1.73;;;;;;;;;;4987178;28;20129;-77
2021/11/10 01:52:43;;;;;;;4.07;1.63;;;;;;;;;;4985381;28;20054;-76
2021/11/10 01:55:10;;;;;;;4.80;1.80;;;;;;;;;;5002886;28;20111;-80
2021/11/10 01:57:37;;;;;;;3.47;1.55;;;;;;;;;;5004993;28;20077;-75
2021/11/10 02:00:15;;;;;;;4.28;1.70;;;;;;;;;;5008665;28;20446;-77
2021/11/10 02:02:42;;;;;;;4.78;1.48;;;;;;;;;;5009559;28;20088;-76
2021/11/10 02:05:10;;;;;;;4.50;1.73;;;;;;;;;;5007895;28;20085;-77
2021/11/10 02:07:36;;;;;;;3.45;1.73;;;;;;;;;;5004605;28;20120;-76
2021/11/10 02:10:03;;;;;;;3.90;1.50;;;;;;;;;;5006152;28;20053;-76
2021/11/10 02:12:30;;;;;;;2.65;1.42;;;;;;;;;;5004708;28;20060;-76
2021/11/10 02:14:58;;;;;;;4.95;1.73;;;;;;;;;;5003365;28;20057;-75
2021/11/10 02:17:25;;;;;;;3.90;1.83;;;;;;;;;;5007232;28;20034;-77
2021/11/10 02:19:52;;;;;;;4.28;1.98;;;;;;;;;;5002128;28;20057;-76
2021/11/10 02:22:20;;;;;;;5.90;2.17;;;;;;;;;;5004078;28;20061;-77
2021/11/10 02:24:46;;;;;;;4.22;1.75;;;;;;;;;;5000749;28;20568;-77
2021/11/10 02:27:27;;;;;;;3.17;1.65;;;;;;;;;;5005254;28;20112;-77
2021/11/10 02:29:54;;;;;;;3.72;1.50;;;;;;;;;;5008283;28;20136;-77
2021/11/10 02:32:21;;;;;;;5.63;1.77;;;;;;;;;;5005625;28;20030;-77
2021/11/10 02:34:48;;;;;;;3.67;1.95;;;;;;;;;;5003398;28;20132;-77
2021/11/10 02:37:16;;;;;;;5.63;2.03;;;;;;;;;;5006426;28;20073;-77
2021/11/10 02:39:42;;;;;;;6.75;1.92;;;;;;;;;;5003043;28;20065;-77
2021/11/10 02:42:09;;;;;;;3.10;1.55;;;;;;;;;;5000251;28;20112;-77
2021/11/10 02:44:36;;;;;;;4.13;1.65;;;;;;;;;;5002567;28;20089;-76
2021/11/10 02:47:04;;;;;;;4.25;1.60;;;;;;;;;;5005583;28;20049;-76
2021/11/10 02:49:31;;;;;;;3.47;1.63;;;;;;;;;;5006328;28;20602;-76
2021/11/10 02:51:57;;;;;;;4.05;1.48;;;;;;;;;;4988453;28;20066;-76
2021/11/10 02:54:24;;;;;;;3.70;1.52;;;;;;;;;;5012869;28;20128;-76
2021/11/10 02:56:55;;;;;;;2.50;1.40;;;;;;;;;;5004081;28;20053;-75
2021/11/10 02:59:22;;;;;;;2.35;1.50;;;;;;;;;;5005172;28;20108;-76
2021/11/10 03:01:49;;;;;;;3.33;1.50;;;;;;;;;;5004081;28;20054;-75
2021/11/10 03:04:26;;;;;;;4.10;1.75;;;;;;;;;;5003988;28;20058;-76
2021/11/10 03:06:53;;;;;;;3.63;1.73;;;;;;;;;;5005844;28;20125;-77
2021/11/10 03:09:21;;;;;;;3.78;1.52;;;;;;;;;;5005196;28;20041;-78
2021/11/10 03:11:48;;;;;;;3.60;1.50;;;;;;;;;;5003674;28;20693;-77
2021/11/10 03:14:15;;;;;;;4.22;1.65;;;;;;;;;;5009828;28;20489;-77
2021/11/10 03:16:42;;;;;;;2.97;1.60;;;;;;;;;;5008526;28;20112;-77
2021/11/10 03:19:08;;;;;;;5.40;1.50;;;;;;;;;;5007052;28;20068;-77
2021/11/10 03:21:35;;;;;;;3.70;1.40;;;;;;;;;;5014605;28;20049;-77
2021/11/10 03:24:01;;;;;;;3.40;1.83;;;;;;;;;;5007987;28;20594;-76
2021/11/10 03:26:28;;;;;;;3.75;1.60;;;;;;;;;;5000787;28;20068;-75
2021/11/10 03:28:54;;;;;;;4.88;1.80;;;;;;;;;;4989361;28;20073;-75
2021/11/10 03:31:20;;;;;;;4.32;1.73;;;;;;;;;;5008385;28;20119;-75
2021/11/10 03:33:47;;;;;;;4.45;1.80;;;;;;;;;;5007439;28;20054;-76
2021/11/10 03:36:15;;;;;;;3.58;1.70;;;;;;;;;;5007996;28;20061;-75
2021/11/10 03:38:42;;;;;;;3.85;1.63;;;;;;;;;;5007528;28;20073;-77
2021/11/10 03:41:08;;;;;;;2.85;1.80;;;;;;;;;;5007892;28;20069;-76
2021/11/10 03:43:36;;;;;;;2.95;1.50;;;;;;;;;;4973927;28;20131;-75
2021/11/10 03:46:03;;;;;;;4.97;1.63;;;;;;;;;;5001061;28;20058;-75
2021/11/10 03:48:30;;;;;;;4.75;1.50;;;;;;;;;;5005811;28;20568;-75
2021/11/10 03:50:57;;;;;;;4.18;1.77;;;;;;;;;;5006791;28;20076;-76
2021/11/10 03:53:23;;;;;;;3.83;1.58;;;;;;;;;;5008986;28;20053;-77
2021/11/10 03:55:50;;;;;;;4.38;1.90;;;;;;;;;;4970037;28;20062;-77
2021/11/10 03:58:16;;;;;;;3.00;1.60;;;;;;;;;;4989453;28;20070;-76
2021/11/10 04:00:43;;;;;;;4.30;1.83;;;;;;;;;;4983166;28;20069;-76
2021/11/10 04:03:09;;;;;;;3.40;1.35;;;;;;;;;;4992123;28;20073;-76
2021/11/10 04:05:36;;;;;;;3.50;1.42;;;;;;;;;;4987294;28;20074;-77
2021/11/10 04:08:02;;;;;;;4.35;1.50;;;;;;;;;;4992573;28;20533;-77
2021/11/10 04:10:29;;;;;;;3.28;1.60;;;;;;;;;;4987690;28;20143;-77
2021/11/10 04:12:55;;;;;;;3.45;1.38;;;;;;;;;;4980364;28;20054;-77
2021/11/10 04:15:22;;;;;;;4.22;2.00;;;;;;;;;;4989573;28;20054;-75
2021/11/10 04:17:48;;;;;;;3.30;1.70;;;;;;;;;;4986398;28;20072;-77
2021/11/10 04:20:14;;;;;;;5.60;1.60;;;;;;;;;;4988135;28;20065;-77
2021/11/10 04:22:41;;;;;;;4.47;1.48;;;;;;;;;;4987821;28;20065;-76
2021/11/10 04:25:07;;;;;;;3.90;1.77;;;;;;;;;;4985686;28;20073;-75
2021/11/10 04:27:34;;;;;;;4.57;1.73;;;;;;;;;;4987414;28;20061;-76
2021/11/10 04:30:00;;;;;;;2.80;1.25;;;;;;;;;;4970869;28;20399;-76
2021/11/10 04:32:27;;;;;;;3.15;1.50;;;;;;;;;;4988763;28;20054;-76
2021/11/10 04:34:53;;;;;;;4.05;1.63;;;;;;;;;;4983531;28;20078;-76
2021/11/10 04:37:19;;;;;;;4.03;1.60;;;;;;;;;;4987905;28;20080;-79
2021/11/10 04:39:46;;;;;;;4.28;1.50;;;;;;;;;;4988878;28;20458;-78
2021/11/10 04:42:13;;;;;;;3.25;1.40;;;;;;;;;;4985017;28;20073;-78
2021/11/10 04:44:40;;;;;;;3.10;1.60;;;;;;;;;;4984291;28;20752;-78
2021/11/10 04:47:06;;;;;;;4.10;1.50;;;;;;;;;;4990088;28;20092;-78
2021/11/10 04:49:33;;;;;;;5.28;1.80;;;;;;;;;;4985186;28;20054;-79
2021/11/10 04:52:00;;;;;;;4.15;1.67;;;;;;;;;;4985258;28;20046;-77
2021/11/10 04:54:30;;;;;;;3.00;1.40;;;;;;;;;;4974399;28;20061;-78
2021/11/10 04:56:57;;;;;;;3.78;1.60;;;;;;;;;;4987715;28;20057;-77
2021/11/10 04:59:24;;;;;;;3.35;1.30;;;;;;;;;;4984327;28;20058;-77
2021/11/10 05:04:31;;;;;;;;;;;;;;;;;;4985718;28;20089;-79
2021/11/10 05:06:58;;;;;;;3.20;1.45;;;;;;;;;;4986610;28;19953;-78
2021/11/10 05:09:24;;;;;;;4.60;1.67;;;;;;;;;;4982149;28;20062;-78
2021/11/10 05:11:50;;;;;;;4.20;1.55;;;;;;;;;;4980895;28;20074;-79
2021/11/10 05:14:17;;;;;;;2.88;1.55;;;;;;;;;;4984254;28;20105;-78
2021/11/10 05:16:44;;;;;;;4.25;1.40;;;;;;;;;;4985644;28;20788;-79
2021/11/10 05:19:10;;;;;;;2.40;1.23;;;;;;;;;;4981589;28;20054;-77
2021/11/10 05:21:37;;;;;;;3.95;1.58;;;;;;;;;;4984794;28;20687;-77
2021/11/10 05:24:03;;;;;;;3.80;1.70;;;;;;;;;;4986551;28;20116;-77
2021/11/10 05:26:30;;;;;;;5.00;1.90;;;;;;;;;;4981208;28;20058;-78
2021/11/10 05:28:57;;;;;;;3.10;1.80;;;;;;;;;;4986454;28;20073;-78
2021/11/10 05:31:23;;;;;;;4.10;1.50;;;;;;;;;;4988082;28;20092;-76
2021/11/10 05:33:50;;;;;;;3.60;1.63;;;;;;;;;;4986090;28;20062;-78
2021/11/10 05:36:16;;;;;;;4.13;1.70;;;;;;;;;;4985980;28;20065;-78
2021/11/10 05:38:43;;;;;;;4.47;2.00;;;;;;;;;;4994354;28;20097;-78
2021/11/10 05:41:09;;;;;;;3.85;1.77;;;;;;;;;;4989393;28;20050;-77
2021/11/10 05:43:36;;;;;;;6.28;2.00;;;;;;;;;;4971719;28;20070;-79
2021/11/10 05:46:04;;;;;;;3.28;1.70;;;;;;;;;;4991111;28;20061;-79
2021/11/10 05:48:31;;;;;;;4.50;1.83;;;;;;;;;;4986987;28;20442;-78
2021/11/10 05:50:57;;;;;;;3.92;1.60;;;;;;;;;;4978963;28;20082;-78
2021/11/10 05:53:24;;;;;;;5.47;1.73;;;;;;;;;;4980234;28;20058;-78
2021/11/10 05:55:55;;;;;;;3.08;1.63;;;;;;;;;;5009490;28;20062;-79
2021/11/10 05:58:27;;;;;;;3.83;1.52;;;;;;;;;;5006089;28;20066;-78
2021/11/10 06:00:56;;;;;;;2.63;1.50;;;;;;;;;;5002378;28;20704;-78
2021/11/10 06:03:23;;;;;;;3.72;1.50;;;;;;;;;;4992214;28;20218;-79
2021/11/10 06:05:52;;;;;;;5.28;1.75;;;;;;;;;;5004524;28;20062;-79
2021/11/10 06:08:19;;;;;;;5.00;1.70;;;;;;;;;;5001125;28;20677;-79
2021/11/10 06:10:46;;;;;;;4.80;1.40;;;;;;;;;;5010786;28;20050;-78
2021/11/10 06:13:13;;;;;;;5.03;1.85;;;;;;;;;;4986365;28;20407;-79
2021/11/10 06:15:39;;;;;;;5.55;1.73;;;;;;;;;;5009909;28;20166;-79
2021/11/10 06:18:09;;;;;;;2.60;1.40;;;;;;;;;;5005111;28;20567;-79
2021/11/10 06:20:35;;;;;;;2.42;1.30;;;;;;;;;;5004495;28;20062;-78
2021/11/10 06:23:05;;;;;;;2.13;1.33;;;;;;;;;;5003081;28;20062;-79
2021/11/10 06:25:32;;;;;;;2.47;1.40;;;;;;;;;;5006780;28;20116;-79
2021/11/10 06:27:58;;;;;;;2.65;1.20;;;;;;;;;;5001869;28;20058;-79
2021/11/10 06:30:25;;;;;;;2.25;1.25;;;;;;;;;;5003639;28;20407;-79
2021/11/10 06:32:52;;;;;;;3.97;1.73;;;;;;;;;;5004431;28;20053;-78
2021/11/10 06:35:18;;;;;;;3.58;1.40;;;;;;;;;;5000316;28;20056;-77
2021/11/10 06:37:45;;;;;;;3.58;1.48;;;;;;;;;;5010285;28;20061;-78
2021/11/10 06:40:12;;;;;;;3.58;1.42;;;;;;;;;;5011309;28;20065;-80
2021/11/10 06:42:39;;;;;;;3.65;1.30;;;;;;;;;;4999988;28;20062;-79
2021/11/10 06:45:06;;;;;;;3.75;1.52;;;;;;;;;;5005545;28;20517;-78
2021/11/10 06:47:33;;;;;;;4.30;1.80;;;;;;;;;;5013130;28;20054;-78
2021/11/10 06:50:00;;;;;;;2.78;1.30;;;;;;;;;;5007981;28;20529;-79
2021/11/10 06:52:27;;;;;;;2.40;1.40;;;;;;;;;;5009437;28;20053;-79
2021/11/10 06:54:53;;;;;;;2.60;1.35;;;;;;;;;;5010665;28;20073;-78
2021/11/10 06:57:20;;;;;;;3.08;1.48;;;;;;;;;;5008116;28;20065;-78
2021/11/10 06:59:47;;;;;;;2.53;1.30;;;;;;;;;;5010483;28;20057;-78
2021/11/10 07:02:13;;;;;;;3.05;1.40;;;;;;;;;;5012385;28;20056;-78
2021/11/10 07:04:39;;;;;;;2.97;1.27;;;;;;;;;;5006195;28;20080;-78
2021/11/10 07:07:06;;;;;;;3.05;1.38;;;;;;;;;;5009060;28;20536;-79
2021/11/10 07:09:32;;;;;;;4.03;1.30;;;;;;;;;;5009849;28;20135;-78
2021/11/10 07:11:59;;;;;;;2.63;1.45;;;;;;;;;;5004807;28;20057;-79
2021/11/10 07:14:26;;;;;;;3.65;1.55;;;;;;;;;;5010182;28;20061;-78
2021/11/10 07:16:53;;;;;;;2.95;1.50;;;;;;;;;;5012496;28;20053;-77
2021/11/10 07:19:19;;;;;;;2.28;1.38;;;;;;;;;;5008475;28;20061;-78
2021/11/10 07:21:46;;;;;;;3.38;1.40;;;;;;;;;;5014979;28;20111;-81
2021/11/10 07:24:12;;;;;;;3.35;1.50;;;;;;;;;;5019197;28;20448;-79
2021/11/10 07:26:39;;;;;;;3.95;1.42;;;;;;;;;;5008495;28;20074;-78
2021/11/10 07:29:05;;;;;;;3.42;1.50;;;;;;;;;;5011243;28;20058;-80
2021/11/10 07:31:33;;;;;;;5.20;1.42;;;;;;;;;;5006230;28;20053;-79
2021/11/10 07:34:00;;;;;;;3.78;1.42;;;;;;;;;;5010019;28;20061;-81
2021/11/10 07:36:27;;;;;;;2.22;1.20;;;;;;;;;;5006619;28;20064;-80
2021/11/10 07:38:55;;;;;;;3.17;1.40;;;;;;;;;;5008839;28;20066;-80
2021/11/10 07:41:23;;;;;;;2.08;1.20;;;;;;;;;;5012586;28;20144;-79
2021/11/10 07:43:53;;;;;;;2.17;1.13;;;;;;;;;;5011613;28;20112;-79
2021/11/10 07:46:20;;;;;;;2.75;1.20;;;;;;;;;;5011563;28;20549;-79
2021/11/10 07:48:47;;;;;;;2.47;1.10;;;;;;;;;;5006744;28;20057;-80
2021/11/10 07:51:14;;;;;;;3.30;1.38;;;;;;;;;;5008762;28;20057;-80
2021/11/10 07:53:41;;;;;;;2.78;1.10;;;;;;;;;;5008353;28;20063;-81
2021/11/10 07:56:07;;;;;;;2.40;1.17;;;;;;;;;;4999993;28;20107;-80
2021/11/10 07:58:34;;;;;;;3.03;1.40;;;;;;;;;;5009334;28;20575;-81
2021/11/10 08:01:01;;;;;;;2.55;1.20;;;;;;;;;;5006883;28;20069;-81
2021/11/10 08:03:27;;;;;;;4.38;1.25;;;;;;;;;;5006283;28;20065;-80
2021/11/10 08:05:56;;;;;;;2.85;1.17;;;;;;;;;;5004834;28;20576;-80
2021/11/10 08:08:23;;;;;;;2.55;1.27;;;;;;;;;;5007065;28;20108;-80
2021/11/10 08:10:50;;;;;;;3.97;1.20;;;;;;;;;;5005570;28;20064;-81
2021/11/10 08:13:16;;;;;;;2.35;1.17;;;;;;;;;;5012709;28;20092;-81
2021/11/10 08:15:43;;;;;;;2.88;1.13;;;;;;;;;;5002781;28;20065;-81
2021/11/10 08:18:09;;;;;;;2.55;1.30;;;;;;;;;;5007737;28;20731;-80
2021/11/10 08:20:35;;;;;;;2.75;1.55;;;;;;;;;;5008779;28;20064;-81
2021/11/10 08:23:02;;;;;;;3.55;1.30;;;;;;;;;;5002823;28;21288;-81
2021/11/10 08:25:29;;;;;;;2.53;1.15;;;;;;;;;;5007779;28;20057;-81
2021/11/10 08:27:56;;;;;;;3.15;1.20;;;;;;;;;;5006685;28;20062;-82
2021/11/10 08:30:22;;;;;;;2.80;1.10;;;;;;;;;;5004559;28;20077;-80
2021/11/10 08:32:52;;;;;;;1.90;1.10;;;;;;;;;;5006670;28;20128;-79
2021/11/10 08:35:19;;;;;;;2.75;1.20;;;;;;;;;;5019096;28;20068;-81
2021/11/10 08:37:47;;;;;;;2.22;1.15;;;;;;;;;;4998048;28;20069;-81
2021/11/10 08:40:13;;;;;;;2.03;1.08;;;;;;;;;;5004438;28;20062;-80
2021/11/10 08:42:40;;;;;;;1.67;0.85;;;;;;;;;;4988012;28;20038;-81
2021/11/10 08:45:11;;;;;;;2.38;1.40;;;;;;;;;;5005592;28;20062;-80
2021/11/10 08:47:39;;;;;;;3.38;1.35;;;;;;;;;;5008359;28;20107;-80
2021/11/10 08:50:07;;;;;;;2.67;1.10;;;;;;;;;;4993722;28;20114;-80
2021/11/10 08:52:35;;;;;;;2.20;1.20;;;;;;;;;;5008843;28;20065;-81
2021/11/10 08:55:01;;;;;;;2.38;1.17;;;;;;;;;;5005738;28;20201;-81
2021/11/10 08:57:28;;;;;;;3.22;1.40;;;;;;;;;;5006064;28;20061;-82
2021/11/10 08:59:54;;;;;;;2.30;1.20;;;;;;;;;;4990973;28;20100;-80
2021/11/10 09:02:20;;;;;;;2.30;1.20;;;;;;;;;;5006681;28;20044;-81
2021/11/10 09:04:47;;;;;;;2.42;1.08;;;;;;;;;;5007120;28;20124;-81
2021/11/10 09:07:13;;;;;;;3.97;1.33;;;;;;;;;;5005596;28;20058;-81
2021/11/10 09:09:40;;;;;;;1.98;1.00;;;;;;;;;;4999758;28;20069;-80
2021/11/10 09:12:08;;;;;;;2.63;1.20;;;;;;;;;;5007138;28;20655;-80
2021/11/10 09:14:34;;;;;;;2.45;1.20;;;;;;;;;;5005891;28;20061;-80
2021/11/10 09:17:01;;;;;;;2.72;1.38;;;;;;;;;;4999476;28;20501;-80
2021/11/10 09:19:27;;;;;;;2.63;1.13;;;;;;;;;;5007060;28;20045;-81
2021/11/10 09:21:54;;;;;;;2.40;1.20;;;;;;;;;;5006427;28;20062;-81
2021/11/10 09:24:20;;;;;;;2.42;1.23;;;;;;;;;;5005723;28;20104;-81
2021/11/10 09:26:48;;;;;;;3.30;1.48;;;;;;;;;;5005639;28;20073;-81
2021/11/10 09:29:16;;;;;;;2.22;1.20;;;;;;;;;;4986489;28;20768;-80
2021/11/10 09:31:43;;;;;;;1.80;1.10;;;;;;;;;;5008075;28;20062;-80
2021/11/10 09:34:12;;;;;;;2.42;1.20;;;;;;;;;;4997393;28;20482;-80
2021/11/10 09:36:46;;;;;;;2.35;1.17;;;;;;;;;;5005097;28;20070;-80
2021/11/10 09:39:13;;;;;;;3.00;1.10;;;;;;;;;;5008661;28;20070;-81
2021/11/10 09:41:41;;;;;;;1.80;1.13;;;;;;;;;;5011836;28;20053;-81
2021/11/10 09:44:08;;;;;;;1.90;1.00;;;;;;;;;;5006410;28;20073;-81
2021/11/10 09:46:34;;;;;;;1.88;1.05;;;;;;;;;;5006442;28;20058;-81
2021/11/10 09:49:01;;;;;;;2.28;1.17;;;;;;;;;;5003105;28;20496;-81
2021/11/10 09:51:27;;;;;;;2.67;1.23;;;;;;;;;;5006025;28;20101;-81
2021/11/10 09:53:54;;;;;;;2.97;1.10;;;;;;;;;;5006419;28;20081;-81
2021/11/10 09:56:25;;;;;;;2.42;1.10;;;;;;;;;;4999621;28;20092;-81
2021/11/10 09:58:52;;;;;;;2.00;1.20;;;;;;;;;;5002103;28;20054;-82
2021/11/10 10:01:19;;;;;;;1.65;1.02;;;;;;;;;;5004560;28;20505;-81
2021/11/10 10:03:47;;;;;;;2.17;1.20;;;;;;;;;;5005917;28;20116;-81
2021/11/10 10:06:13;;;;;;;2.63;1.10;;;;;;;;;;5007101;28;20057;-81
2021/11/10 10:08:40;;;;;;;2.25;1.10;;;;;;;;;;5005457;28;20054;-82
2021/11/10 10:11:07;;;;;;;2.40;1.30;;;;;;;;;;5004718;28;20577;-80
2021/11/10 10:13:33;;;;;;;2.67;1.10;;;;;;;;;;5005794;28;20065;-81
2021/11/10 10:15:59;;;;;;;2.63;1.20;;;;;;;;;;5005762;28;20493;-80
2021/11/10 10:18:27;;;;;;;1.67;1.10;;;;;;;;;;5002203;28;20069;-81
2021/11/10 10:20:57;;;;;;;2.10;1.10;;;;;;;;;;5008145;28;20765;-80
2021/11/10 10:23:26;;;;;;;2.05;1.38;;;;;;;;;;5012913;28;20061;-81
2021/11/10 10:25:52;;;;;;;3.55;1.30;;;;;;;;;;5008239;28;20069;-81
2021/11/10 10:28:24;;;;;;;1.88;1.00;;;;;;;;;;5013388;28;20496;-81
2021/11/10 10:30:51;;;;;;;3.40;1.20;;;;;;;;;;5008128;28;20124;-81
2021/11/10 10:33:23;;;;;;;4.15;1.13;;;;;;;;;;5011483;28;20053;-80
2021/11/10 10:35:54;;;;;;;1.98;1.20;;;;;;;;;;5008495;28;20175;-82
2021/11/10 10:38:22;;;;;;;1.88;1.10;;;;;;;;;;5003821;28;20027;-81
2021/11/10 10:40:50;;;;;;;1.83;1.10;;;;;;;;;;5009253;28;20084;-81
2021/11/10 10:43:17;;;;;;;1.67;1.13;;;;;;;;;;5010714;28;20101;-80
2021/11/10 10:45:46;;;;;;;2.65;1.10;;;;;;;;;;5008997;28;20119;-81
2021/11/10 10:48:12;;;;;;;2.35;1.17;;;;;;;;;;4989001;28;20109;-81
2021/11/10 10:50:40;;;;;;;2.17;1.13;;;;;;;;;;5000436;28;20109;-80
2021/11/10 10:53:08;;;;;;;2.28;1.20;;;;;;;;;;5007872;28;20112;-81
2021/11/10 10:55:39;;;;;;;1.48;1.00;;;;;;;;;;5010916;28;20074;-80
2021/11/10 10:58:10;;;;;;;2.53;1.20;;;;;;;;;;5010468;28;20061;-80
2021/11/10 11:00:37;;;;;;;2.13;1.20;;;;;;;;;;4994095;28;20678;-81
2021/11/10 11:03:17;;;;;;;2.05;1.10;;;;;;;;;;4994281;28;20113;-80
2021/11/10 11:05:44;;;;;;;2.55;1.10;;;;;;;;;;5010233;28;20056;-80
2021/11/10 11:08:29;;;;;;;2.92;1.20;;;;;;;;;;5007556;28;20112;-81
2021/11/10 11:10:57;;;;;;;1.80;1.10;;;;;;;;;;4998538;28;20049;-81
2021/11/10 11:13:43;;;;;;;1.58;1.00;;;;;;;;;;5002120;28;20065;-80
2021/11/10 11:16:09;;;;;;;1.80;1.10;;;;;;;;;;5004892;28;20195;-79
2021/11/10 11:18:37;;;;;;;1.88;1.02;;;;;;;;;;5007299;28;20069;-79
2021/11/10 11:21:22;;;;;;;2.30;1.00;;;;;;;;;;4988018;28;21318;-80
2021/11/10 11:23:48;;;;;;;2.00;1.13;;;;;;;;;;5006603;28;20116;-80
2021/11/10 11:26:31;;;;;;;2.15;1.17;;;;;;;;;;5007777;28;20057;-80
2021/11/10 11:29:16;;;;;;;1.67;0.90;;;;;;;;;;5003268;28;20070;-81
2021/11/10 11:31:43;;;;;;;2.47;0.90;;;;;;;;;;5004612;28;20054;-80
2021/11/10 11:34:09;;;;;;;2.55;1.08;;;;;;;;;;5004409;28;20065;-80
2021/11/10 11:36:55;;;;;;;2.17;1.00;;;;;;;;;;5008510;28;20196;-80
2021/11/10 11:39:23;;;;;;;3.30;1.25;;;;;;;;;;5007334;28;20081;-80
2021/11/10 11:41:50;;;;;;;1.90;1.02;;;;;;;;;;5007545;28;20054;-82
2021/11/10 11:44:18;;;;;;;1.70;1.10;;;;;;;;;;5009713;28;20554;-82
2021/11/10 11:46:45;;;;;;;1.60;0.90;;;;;;;;;;5006587;28;20041;-81
2021/11/10 11:49:16;;;;;;;2.50;0.90;;;;;;;;;;5009604;28;20030;-81
2021/11/10 11:51:44;;;;;;;1.83;1.20;;;;;;;;;;5003234;28;20568;-81
2021/11/10 11:54:11;;;;;;;2.47;1.38;;;;;;;;;;5000943;28;20746;-81
2021/11/10 11:56:39;;;;;;;1.92;1.27;;;;;;;;;;4989713;28;20066;-82
2021/11/10 11:59:08;;;;;;;2.17;1.20;;;;;;;;;;4986787;28;20786;-82
2021/11/10 12:01:37;;;;;;;1.67;1.10;;;;;;;;;;4987495;28;20521;-81
2021/11/10 12:04:07;;;;;;;2.50;1.15;;;;;;;;;;4967567;28;20062;-81
2021/11/10 12:06:34;;;;;;;1.83;1.23;;;;;;;;;;4990303;28;20088;-82
2021/11/10 12:09:02;;;;;;;2.42;1.20;;;;;;;;;;4987435;28;20080;-81
2021/11/10 12:11:35;;;;;;;3.15;1.48;;;;;;;;;;4989446;28;20065;-82
2021/11/10 12:14:05;;;;;;;2.50;1.20;;;;;;;;;;4985511;28;20108;-81
2021/11/10 12:16:51;;;;;;;2.33;1.23;;;;;;;;;;4988308;28;20046;-82
2021/11/10 12:19:24;;;;;;;2.80;1.15;;;;;;;;;;4944228;28;20056;-81
2021/11/10 12:21:53;;;;;;;2.10;1.30;;;;;;;;;;4959465;28;20064;-81
2021/11/10 12:24:21;;;;;;;2.17;1.30;;;;;;;;;;4989232;28;20073;-81
2021/11/10 12:27:08;;;;;;;1.90;1.00;;;;;;;;;;4987737;28;20491;-83
2021/11/10 12:29:49;;;;;;;2.30;1.20;;;;;;;;;;4987074;28;20046;-82
2021/11/10 12:32:19;;;;;;;2.42;1.13;;;;;;;;;;4964242;28;20447;-82
2021/11/10 12:34:55;;;;;;;3.15;1.30;;;;;;;;;;4982100;28;20050;-82
2021/11/10 12:37:24;;;;;;;2.38;1.38;;;;;;;;;;4989393;28;20038;-80
2021/11/10 12:39:59;;;;;;;2.40;1.30;;;;;;;;;;4987286;28;20133;-82
2021/11/10 12:42:38;;;;;;;2.38;1.30;;;;;;;;;;4986021;28;20065;-82
2021/11/10 12:45:05;;;;;;;3.25;1.10;;;;;;;;;;4986246;28;20057;-82
2021/11/10 12:47:46;;;;;;;2.33;1.42;;;;;;;;;;4989577;28;20054;-83
2021/11/10 12:50:31;;;;;;;2.22;1.27;;;;;;;;;;4986869;28;20419;-82
2021/11/10 12:52:59;;;;;;;2.30;1.30;;;;;;;;;;4987927;28;20121;-82
2021/11/10 12:55:26;;;;;;;2.25;1.30;;;;;;;;;;5002997;28;20069;-81
2021/11/10 12:57:53;;;;;;;2.72;1.10;;;;;;;;;;4986337;28;20065;-82
2021/11/10 13:00:21;;;;;;;1.92;1.20;;;;;;;;;;5003180;28;20508;-81
2021/11/10 13:02:51;;;;;;;2.35;1.20;;;;;;;;;;5006801;28;20057;-79
2021/11/10 13:05:25;;;;;;;1.80;1.02;;;;;;;;;;5002832;28;20458;-81
2021/11/10 13:08:15;;;;;;;1.80;1.08;;;;;;;;;;4984358;28;20054;-81
2021/11/10 13:10:42;;;;;;;2.47;1.05;;;;;;;;;;5005879;28;20054;-82
2021/11/10 13:13:10;;;;;;;2.45;1.10;;;;;;;;;;5004552;28;20038;-81
2021/11/10 13:15:36;;;;;;;2.05;1.08;;;;;;;;;;5002614;28;20563;-81
2021/11/10 13:18:22;;;;;;;3.78;1.30;;;;;;;;;;5005852;28;20064;-81
2021/11/10 13:20:50;;;;;;;2.20;1.30;;;;;;;;;;5007066;28;20065;-80
2021/11/10 13:23:20;;;;;;;1.85;1.08;;;;;;;;;;5000342;28;20058;-82
2021/11/10 13:25:47;;;;;;;1.58;1.05;;;;;;;;;;4990711;28;20077;-82
2021/11/10 13:28:19;;;;;;;1.95;1.20;;;;;;;;;;5005447;28;20088;-82
2021/11/10 13:30:47;;;;;;;1.85;1.00;;;;;;;;;;5005288;28;20069;-81
2021/11/10 13:33:16;;;;;;;2.15;1.20;;;;;;;;;;5001078;28;20050;-82
2021/11/10 13:35:44;;;;;;;1.70;1.00;;;;;;;;;;5006096;28;20045;-81
2021/11/10 13:38:11;;;;;;;3.15;1.38;;;;;;;;;;5007311;28;20053;-80
2021/11/10 13:40:38;;;;;;;1.70;1.10;;;;;;;;;;4998312;28;20614;-81
2021/11/10 13:43:04;;;;;;;2.63;1.10;;;;;;;;;;5003426;28;20352;-81
2021/11/10 13:45:32;;;;;;;2.70;1.30;;;;;;;;;;5004793;28;20768;-80
2021/11/10 13:48:00;;;;;;;2.03;1.00;;;;;;;;;;5009756;28;20099;-81
2021/11/10 13:50:31;;;;;;;1.98;1.00;;;;;;;;;;5012056;28;20053;-81
2021/11/10 13:53:05;;;;;;;1.52;1.08;;;;;;;;;;5008554;28;20068;-85
2021/11/10 13:55:31;;;;;;;1.77;1.10;;;;;;;;;;5005352;28;20069;-81
2021/11/10 13:58:04;;;;;;;2.13;1.00;;;;;;;;;;5003960;28;24921;-82
2021/11/10 14:00:30;;;;;;;2.00;1.20;;;;;;;;;;4990277;28;20026;-80
2021/11/10 14:02:58;;;;;;;2.08;1.10;;;;;;;;;;5006698;28;20119;-81
2021/11/10 14:05:25;;;;;;;1.90;1.08;;;;;;;;;;5006669;28;20070;-79
2021/11/10 14:07:52;;;;;;;2.47;1.17;;;;;;;;;;5004690;28;20064;-82
2021/11/10 14:10:20;;;;;;;1.75;1.02;;;;;;;;;;5007942;28;20689;-81
2021/11/10 14:12:47;;;;;;;2.17;1.00;;;;;;;;;;5003938;28;20062;-80
2021/11/10 14:15:23;;;;;;;2.00;1.10;;;;;;;;;;4988009;28;20692;-81
2021/11/10 14:17:49;;;;;;;2.33;1.20;;;;;;;;;;5006849;28;20062;-80
2021/11/10 14:20:23;;;;;;;1.70;1.00;;;;;;;;;;5004823;28;20060;-81
2021/11/10 14:22:56;;;;;;;1.70;1.10;;;;;;;;;;5000751;28;20061;-82
2021/11/10 14:25:23;;;;;;;2.50;1.10;;;;;;;;;;5005903;28;20068;-82
2021/11/10 14:27:57;;;;;;;1.60;1.00;;;;;;;;;;5008909;28;20069;-80
2021/11/10 14:30:24;;;;;;;2.13;1.23;;;;;;;;;;5004437;28;20066;-80
2021/11/10 14:32:53;;;;;;;1.63;0.93;;;;;;;;;;5004271;28;20096;-82
2021/11/10 14:35:20;;;;;;;1.45;0.88;;;;;;;;;;4991053;28;20054;-82
2021/11/10 14:37:47;;;;;;;1.98;1.10;;;;;;;;;;5008696;28;20503;-80
2021/11/10 14:40:25;;;;;;;1.92;1.17;;;;;;;;;;5010110;28;20096;-82
2021/11/10 14:42:51;;;;;;;1.63;1.20;;;;;;;;;;5006386;28;20038;-81
2021/11/10 14:45:19;;;;;;;1.25;0.82;;;;;;;;;;5005165;28;20061;-80
2021/11/10 14:47:51;;;;;;;2.20;1.20;;;;;;;;;;4987434;28;20061;-80
2021/11/10 14:50:18;;;;;;;1.80;1.15;;;;;;;;;;5010442;28;20052;-81
2021/11/10 14:52:45;;;;;;;2.00;1.13;;;;;;;;;;5005558;28;20120;-81
2021/11/10 14:55:13;;;;;;;1.90;1.10;;;;;;;;;;5005452;28;20069;-81
2021/11/10 14:57:40;;;;;;;2.22;1.20;;;;;;;;;;5003875;28;20066;-82